sensor_id;sensor_type;location;lat;lon;timestamp;pressure;altitude;pressure_sealevel;temperature;humidity
75629;BME280;64213;46.452;16.994;2022-12-07T00:00:43;100018.06;;;-0.81;100.00
75629;BME280;64213;46.452;16.994;2022-12-07T00:03:46;100015.22;;;-0.67;100.00
75629;BME280;64213;46.452;16.994;2022-12-07T00:06:52;100021.91;;;-0.55;100.00
75629;BME280;64213;46.452;16.994;2022-12-07T00:09:54;100017.41;;;-0.45;100.00
75629;BME280;64213;46.452;16.994;2022-12-07T00:12:57;100025.00;;;-0.36;100.00
75629;BME280;64213;46.452;16.994;2022-12-07T00:16:05;100029.94;;;-0.22;100.00
75629;BME280;64213;46.452;16.994;2022-12-07T00:19:09;100022.84;;;-0.14;100.00
75629;BME280;64213;46.452;16.994;2022-12-07T00:22:12;100026.09;;;-0.03;100.00
75629;BME280;64213;46.452;16.994;2022-12-07T00:25:14;100025.06;;;0.04;100.00
75629;BME280;64213;46.452;16.994;2022-12-07T00:28:16;100016.22;;;0.13;100.00
75629;BME280;64213;46.452;16.994;2022-12-07T00:31:20;100019.56;;;0.18;100.00
75629;BME280;64213;46.452;16.994;2022-12-07T00:34:22;100017.78;;;0.20;100.00
75629;BME280;64213;46.452;16.994;2022-12-07T00:37:24;100021.16;;;0.23;100.00
75629;BME280;64213;46.452;16.994;2022-12-07T00:40:27;100017.75;;;0.21;100.00
75629;BME280;64213;46.452;16.994;2022-12-07T00:43:29;100013.31;;;0.27;100.00
75629;BME280;64213;46.452;16.994;2022-12-07T00:46:31;100007.31;;;0.23;100.00
75629;BME280;64213;46.452;16.994;2022-12-07T00:49:33;100013.22;;;0.30;100.00
75629;BME280;64213;46.452;16.994;2022-12-07T00:52:35;100009.72;;;0.32;100.00
75629;BME280;64213;46.452;16.994;2022-12-07T00:55:38;100009.59;;;0.37;100.00
75629;BME280;64213;46.452;16.994;2022-12-07T00:58:41;100013.87;;;0.39;100.00
75629;BME280;64213;46.452;16.994;2022-12-07T01:01:43;100019.09;;;0.38;100.00
75629;BME280;64213;46.452;16.994;2022-12-07T01:04:45;100021.09;;;0.27;100.00
75629;BME280;64213;46.452;16.994;2022-12-07T01:07:47;100016.87;;;0.22;100.00
75629;BME280;64213;46.452;16.994;2022-12-07T01:10:56;100015.31;;;0.14;100.00
75629;BME280;64213;46.452;16.994;2022-12-07T01:13:59;100012.06;;;0.04;100.00
75629;BME280;64213;46.452;16.994;2022-12-07T01:17:02;100006.03;;;0.02;100.00
75629;BME280;64213;46.452;16.994;2022-12-07T01:20:06;100017.19;;;0.07;100.00
75629;BME280;64213;46.452;16.994;2022-12-07T01:23:08;100007.59;;;0.11;100.00
75629;BME280;64213;46.452;16.994;2022-12-07T01:26:13;100004.13;;;0.10;100.00
75629;BME280;64213;46.452;16.994;2022-12-07T01:29:16;100014.59;;;0.07;100.00
75629;BME280;64213;46.452;16.994;2022-12-07T01:32:18;100009.34;;;0.09;100.00
75629;BME280;64213;46.452;16.994;2022-12-07T01:35:20;100007.66;;;0.08;100.00
75629;BME280;64213;46.452;16.994;2022-12-07T01:38:22;100005.78;;;0.14;100.00
75629;BME280;64213;46.452;16.994;2022-12-07T01:41:27;100004.91;;;0.14;100.00
75629;BME280;64213;46.452;16.994;2022-12-07T01:44:30;99996.25;;;0.13;100.00
75629;BME280;64213;46.452;16.994;2022-12-07T01:47:33;99991.00;;;0.16;100.00
75629;BME280;64213;46.452;16.994;2022-12-07T01:50:36;99996.97;;;0.20;100.00
75629;BME280;64213;46.452;16.994;2022-12-07T01:53:47;99997.72;;;0.25;100.00
75629;BME280;64213;46.452;16.994;2022-12-07T01:56:54;99996.78;;;0.29;100.00
75629;BME280;64213;46.452;16.994;2022-12-07T01:59:59;99999.25;;;0.34;100.00
75629;BME280;64213;46.452;16.994;2022-12-07T02:03:09;99997.50;;;0.34;100.00
75629;BME280;64213;46.452;16.994;2022-12-07T02:06:17;99992.16;;;0.42;100.00
75629;BME280;64213;46.452;16.994;2022-12-07T02:09:20;99980.84;;;0.41;100.00
75629;BME280;64213;46.452;16.994;2022-12-07T02:12:24;99975.59;;;0.44;100.00
75629;BME280;64213;46.452;16.994;2022-12-07T02:25:08;99974.72;;;0.45;100.00
75629;BME280;64213;46.452;16.994;2022-12-07T02:28:37;99971.00;;;0.54;100.00
75629;BME280;64213;46.452;16.994;2022-12-07T02:35:11;99985.56;;;0.63;100.00
75629;BME280;64213;46.452;16.994;2022-12-07T02:41:47;99982.81;;;0.69;100.00
75629;BME280;64213;46.452;16.994;2022-12-07T02:44:50;99981.13;;;0.66;100.00
75629;BME280;64213;46.452;16.994;2022-12-07T02:47:56;99980.28;;;0.66;100.00
75629;BME280;64213;46.452;16.994;2022-12-07T02:51:00;99981.13;;;0.66;100.00
75629;BME280;64213;46.452;16.994;2022-12-07T02:54:13;99967.16;;;0.71;100.00
75629;BME280;64213;46.452;16.994;2022-12-07T02:57:31;99974.00;;;0.73;100.00
75629;BME280;64213;46.452;16.994;2022-12-07T03:00:48;99974.91;;;0.72;100.00
75629;BME280;64213;46.452;16.994;2022-12-07T03:04:14;99976.53;;;0.78;100.00
75629;BME280;64213;46.452;16.994;2022-12-07T03:10:35;99965.34;;;0.73;100.00
75629;BME280;64213;46.452;16.994;2022-12-07T03:17:00;99952.66;;;0.60;100.00
75629;BME280;64213;46.452;16.994;2022-12-07T03:20:07;99949.97;;;0.63;100.00
75629;BME280;64213;46.452;16.994;2022-12-07T03:23:12;99951.66;;;0.66;100.00
75629;BME280;64213;46.452;16.994;2022-12-07T03:26:16;99944.69;;;0.66;100.00
75629;BME280;64213;46.452;16.994;2022-12-07T03:29:24;99949.81;;;0.69;100.00
75629;BME280;64213;46.452;16.994;2022-12-07T03:32:49;99946.41;;;0.67;100.00
75629;BME280;64213;46.452;16.994;2022-12-07T03:36:10;99947.22;;;0.69;100.00
75629;BME280;64213;46.452;16.994;2022-12-07T03:39:20;99943.75;;;0.69;100.00
75629;BME280;64213;46.452;16.994;2022-12-07T03:42:24;99948.25;;;0.62;100.00
75629;BME280;64213;46.452;16.994;2022-12-07T03:45:40;99949.19;;;0.60;100.00
75629;BME280;64213;46.452;16.994;2022-12-07T03:52:00;99951.84;;;0.58;100.00
75629;BME280;64213;46.452;16.994;2022-12-07T03:55:20;99951.06;;;0.55;100.00
75629;BME280;64213;46.452;16.994;2022-12-07T03:58:25;99937.34;;;0.48;100.00
75629;BME280;64213;46.452;16.994;2022-12-07T04:01:27;99938.28;;;0.45;100.00
75629;BME280;64213;46.452;16.994;2022-12-07T04:04:30;99928.75;;;0.44;100.00
75629;BME280;64213;46.452;16.994;2022-12-07T04:07:32;99940.03;;;0.45;100.00
75629;BME280;64213;46.452;16.994;2022-12-07T04:10:35;99933.03;;;0.47;100.00
75629;BME280;64213;46.452;16.994;2022-12-07T04:13:37;99935.59;;;0.49;100.00
75629;BME280;64213;46.452;16.994;2022-12-07T04:16:59;99937.09;;;0.59;100.00
75629;BME280;64213;46.452;16.994;2022-12-07T04:20:03;99942.31;;;0.57;100.00
75629;BME280;64213;46.452;16.994;2022-12-07T04:23:06;99947.50;;;0.57;100.00
75629;BME280;64213;46.452;16.994;2022-12-07T04:26:08;99936.31;;;0.55;100.00
75629;BME280;64213;46.452;16.994;2022-12-07T04:29:10;99944.22;;;0.51;100.00
75629;BME280;64213;46.452;16.994;2022-12-07T04:32:13;99946.63;;;0.58;100.00
75629;BME280;64213;46.452;16.994;2022-12-07T04:35:15;99937.03;;;0.60;100.00
75629;BME280;64213;46.452;16.994;2022-12-07T04:38:17;99937.03;;;0.60;100.00
75629;BME280;64213;46.452;16.994;2022-12-07T04:41:19;99944.91;;;0.57;100.00
75629;BME280;64213;46.452;16.994;2022-12-07T04:44:29;99941.38;;;0.60;100.00
75629;BME280;64213;46.452;16.994;2022-12-07T04:47:31;99936.88;;;0.66;100.00
75629;BME280;64213;46.452;16.994;2022-12-07T04:50:35;99934.19;;;0.69;100.00
75629;BME280;64213;46.452;16.994;2022-12-07T04:53:37;99935.94;;;0.71;100.00
75629;BME280;64213;46.452;16.994;2022-12-07T04:56:39;99930.50;;;0.78;100.00
75629;BME280;64213;46.452;16.994;2022-12-07T04:59:41;99933.97;;;0.79;100.00
75629;BME280;64213;46.452;16.994;2022-12-07T05:02:46;99945.22;;;0.81;100.00
75629;BME280;64213;46.452;16.994;2022-12-07T05:05:48;99937.41;;;0.81;100.00
75629;BME280;64213;46.452;16.994;2022-12-07T05:08:51;99944.28;;;0.83;100.00
75629;BME280;64213;46.452;16.994;2022-12-07T05:11:53;99939.00;;;0.85;100.00
75629;BME280;64213;46.452;16.994;2022-12-07T05:14:55;99940.78;;;0.83;100.00
75629;BME280;64213;46.452;16.994;2022-12-07T05:17:57;99944.22;;;0.85;100.00
75629;BME280;64213;46.452;16.994;2022-12-07T05:20:59;99944.31;;;0.82;100.00
75629;BME280;64213;46.452;16.994;2022-12-07T05:24:01;99946.06;;;0.80;100.00
75629;BME280;64213;46.452;16.994;2022-12-07T05:27:04;99955.72;;;0.76;100.00
75629;BME280;64213;46.452;16.994;2022-12-07T05:30:06;99946.97;;;0.80;100.00
75629;BME280;64213;46.452;16.994;2022-12-07T05:33:09;99940.22;;;0.72;100.00
75629;BME280;64213;46.452;16.994;2022-12-07T05:36:11;99940.97;;;0.77;100.00
75629;BME280;64213;46.452;16.994;2022-12-07T05:39:13;99932.25;;;0.78;100.00
75629;BME280;64213;46.452;16.994;2022-12-07T05:42:15;99933.97;;;0.79;100.00
75629;BME280;64213;46.452;16.994;2022-12-07T05:45:18;99932.25;;;0.78;100.00
75629;BME280;64213;46.452;16.994;2022-12-07T05:48:21;99936.53;;;0.80;100.00
75629;BME280;64213;46.452;16.994;2022-12-07T05:51:23;99942.53;;;0.82;100.00
75629;BME280;64213;46.452;16.994;2022-12-07T05:54:25;99945.06;;;0.85;100.00
75629;BME280;64213;46.452;16.994;2022-12-07T05:57:27;99947.59;;;0.88;100.00
75629;BME280;64213;46.452;16.994;2022-12-07T06:00:29;99947.81;;;0.81;100.00
75629;BME280;64213;46.452;16.994;2022-12-07T06:03:31;99947.81;;;0.81;100.00
75629;BME280;64213;46.452;16.994;2022-12-07T06:06:33;99945.13;;;0.84;100.00
75629;BME280;64213;46.452;16.994;2022-12-07T06:09:37;99946.66;;;0.91;100.00
75629;BME280;64213;46.452;16.994;2022-12-07T06:12:39;99944.12;;;0.89;100.00
75629;BME280;64213;46.452;16.994;2022-12-07T06:15:44;99951.03;;;0.90;100.00
75629;BME280;64213;46.452;16.994;2022-12-07T06:18:46;99944.84;;;0.95;100.00
75629;BME280;64213;46.452;16.994;2022-12-07T06:21:48;99951.66;;;0.99;100.00
75629;BME280;64213;46.452;16.994;2022-12-07T06:24:50;99951.56;;;1.03;100.00
75629;BME280;64213;46.452;16.994;2022-12-07T06:27:52;99947.87;;;1.12;100.00
75629;BME280;64213;46.452;16.994;2022-12-07T06:30:58;99946.91;;;1.14;100.00
75629;BME280;64213;46.452;16.994;2022-12-07T06:34:05;99950.28;;;1.18;100.00
75629;BME280;64213;46.452;16.994;2022-12-07T06:37:08;99947.56;;;1.23;100.00
75629;BME280;64213;46.452;16.994;2022-12-07T06:40:10;99955.28;;;1.26;100.00
75629;BME280;64213;46.452;16.994;2022-12-07T06:43:12;99954.31;;;1.30;100.00
75629;BME280;64213;46.452;16.994;2022-12-07T06:46:15;99957.72;;;1.32;100.00
75629;BME280;64213;46.452;16.994;2022-12-07T06:49:18;99958.62;;;1.31;100.00
75629;BME280;64213;46.452;16.994;2022-12-07T06:52:20;99956.72;;;1.37;100.00
75629;BME280;64213;46.452;16.994;2022-12-07T06:55:22;99958.28;;;1.43;100.00
75629;BME280;64213;46.452;16.994;2022-12-07T06:58:24;99956.34;;;1.50;100.00
75629;BME280;64213;46.452;16.994;2022-12-07T07:01:26;99962.34;;;1.53;100.00
75629;BME280;64213;46.452;16.994;2022-12-07T07:04:29;99954.44;;;1.56;100.00
75629;BME280;64213;46.452;16.994;2022-12-07T07:07:31;99952.59;;;1.60;100.00
75629;BME280;64213;46.452;16.994;2022-12-07T07:10:52;99959.47;;;1.62;100.00
75629;BME280;64213;46.452;16.994;2022-12-07T07:13:54;99961.97;;;1.66;100.00
75629;BME280;64213;46.452;16.994;2022-12-07T07:16:58;99968.94;;;1.65;100.00
75629;BME280;64213;46.452;16.994;2022-12-07T07:20:01;99970.53;;;1.71;100.00
75629;BME280;64213;46.452;16.994;2022-12-07T07:23:04;99967.00;;;1.73;100.00
75629;BME280;64213;46.452;16.994;2022-12-07T07:26:06;99973.13;;;1.71;100.00
75629;BME280;64213;46.452;16.994;2022-12-07T07:29:08;99975.66;;;1.74;100.00
75629;BME280;64213;46.452;16.994;2022-12-07T07:32:10;99975.75;;;1.71;100.00
75629;BME280;64213;46.452;16.994;2022-12-07T07:35:12;99984.41;;;1.71;100.00
75629;BME280;64213;46.452;16.994;2022-12-07T07:38:15;99979.09;;;1.76;100.00
75629;BME280;64213;46.452;16.994;2022-12-07T07:41:17;99984.41;;;1.71;100.00
75629;BME280;64213;46.452;16.994;2022-12-07T07:44:19;99977.25;;;1.79;100.00
75629;BME280;64213;46.452;16.994;2022-12-07T07:47:21;99988.34;;;1.86;100.00
75629;BME280;64213;46.452;16.994;2022-12-07T07:50:24;99986.44;;;1.91;100.00
75629;BME280;64213;46.452;16.994;2022-12-07T07:53:26;99988.28;;;1.87;100.00
75629;BME280;64213;46.452;16.994;2022-12-07T07:56:28;99989.84;;;1.95;100.00
75629;BME280;64213;46.452;16.994;2022-12-07T07:59:30;99989.84;;;1.95;100.00
75629;BME280;64213;46.452;16.994;2022-12-07T08:02:32;99986.91;;;2.05;100.00
75629;BME280;64213;46.452;16.994;2022-12-07T08:05:36;99988.75;;;2.02;100.00
75629;BME280;64213;46.452;16.994;2022-12-07T08:08:39;99988.56;;;2.08;100.00
75629;BME280;64213;46.452;16.994;2022-12-07T08:11:41;99985.72;;;2.16;100.00
75629;BME280;64213;46.452;16.994;2022-12-07T08:14:43;99990.03;;;2.17;100.00
75629;BME280;64213;46.452;16.994;2022-12-07T08:17:45;99986.66;;;2.13;100.00
75629;BME280;64213;46.452;16.994;2022-12-07T08:20:48;99988.75;;;2.02;100.00
75629;BME280;64213;46.452;16.994;2022-12-07T08:23:50;99982.44;;;2.09;100.00
75629;BME280;64213;46.452;16.994;2022-12-07T08:26:52;99989.16;;;2.16;100.00
75629;BME280;64213;46.452;16.994;2022-12-07T08:29:54;99995.72;;;2.29;100.00
75629;BME280;64213;46.452;16.994;2022-12-07T08:32:56;99997.00;;;2.44;100.00
75629;BME280;64213;46.452;16.994;2022-12-07T08:36:04;100002.13;;;2.47;100.00
75629;BME280;64213;46.452;16.994;2022-12-07T08:39:06;99999.97;;;2.62;100.00
75629;BME280;64213;46.452;16.994;2022-12-07T08:42:28;100004.84;;;2.71;99.96
75629;BME280;64213;46.452;16.994;2022-12-07T08:45:40;100007.34;;;2.75;99.08
75629;BME280;64213;46.452;16.994;2022-12-07T08:48:46;100004.66;;;2.77;98.89
75629;BME280;64213;46.452;16.994;2022-12-07T08:51:51;100007.81;;;2.87;99.14
75629;BME280;64213;46.452;16.994;2022-12-07T08:54:53;100001.69;;;3.14;98.52
75629;BME280;64213;46.452;16.994;2022-12-07T08:57:57;100009.03;;;3.28;97.49
75629;BME280;64213;46.452;16.994;2022-12-07T09:01:00;100011.09;;;3.18;97.60
75629;BME280;64213;46.452;16.994;2022-12-07T09:04:03;100020.44;;;3.00;97.82
75629;BME280;64213;46.452;16.994;2022-12-07T09:07:05;100021.50;;;2.95;97.84
75629;BME280;64213;46.452;16.994;2022-12-07T09:10:08;100015.66;;;2.87;98.49
75629;BME280;64213;46.452;16.994;2022-12-07T09:13:10;100017.31;;;2.63;99.59
75629;BME280;64213;46.452;16.994;2022-12-07T09:16:12;100007.56;;;2.68;99.22
75629;BME280;64213;46.452;16.994;2022-12-07T09:19:15;100012.28;;;2.83;99.11
75629;BME280;64213;46.452;16.994;2022-12-07T09:22:17;100009.06;;;3.01;98.69
75629;BME280;64213;46.452;16.994;2022-12-07T09:25:19;100013.16;;;3.10;98.10
75629;BME280;64213;46.452;16.994;2022-12-07T09:28:21;100007.34;;;3.27;97.78
75629;BME280;64213;46.452;16.994;2022-12-07T09:31:23;100004.81;;;3.49;97.12
75629;BME280;64213;46.452;16.994;2022-12-07T09:34:30;100008.66;;;3.64;96.23
75629;BME280;64213;46.452;16.994;2022-12-07T09:37:32;100008.03;;;3.81;95.89
75629;BME280;64213;46.452;16.994;2022-12-07T09:40:36;100005.72;;;3.96;95.48
75629;BME280;64213;46.452;16.994;2022-12-07T09:43:40;100012.16;;;3.63;96.99
75629;BME280;64213;46.452;16.994;2022-12-07T09:46:43;100004.91;;;3.71;96.46
75629;BME280;64213;46.452;16.994;2022-12-07T09:49:46;100004.62;;;3.79;96.37
75629;BME280;64213;46.452;16.994;2022-12-07T09:52:49;99996.59;;;3.60;97.05
75629;BME280;64213;46.452;16.994;2022-12-07T09:55:53;100002.72;;;3.35;98.20
75629;BME280;64213;46.452;16.994;2022-12-07T09:58:59;99998.88;;;3.44;98.28
75629;BME280;64213;46.452;16.994;2022-12-07T10:02:24;99998.56;;;3.28;98.79
75629;BME280;64213;46.452;16.994;2022-12-07T10:05:43;100002.03;;;3.54;97.89
75629;BME280;64213;46.452;16.994;2022-12-07T10:08:47;99993.63;;;3.69;97.75
75629;BME280;64213;46.452;16.994;2022-12-07T10:12:10;99986.22;;;3.57;97.93
75629;BME280;64213;46.452;16.994;2022-12-07T10:15:13;99991.34;;;3.60;98.05
75629;BME280;64213;46.452;16.994;2022-12-07T10:21:32;99989.84;;;3.29;99.64
75629;BME280;64213;46.452;16.994;2022-12-07T10:24:34;99992.72;;;3.46;99.23
75629;BME280;64213;46.452;16.994;2022-12-07T10:27:36;99989.22;;;3.71;98.67
75629;BME280;64213;46.452;16.994;2022-12-07T10:31:00;99971.06;;;3.90;98.17
75629;BME280;64213;46.452;16.994;2022-12-07T10:34:20;99972.72;;;3.92;97.95
75629;BME280;64213;46.452;16.994;2022-12-07T10:37:23;99966.59;;;3.92;98.02
75629;BME280;64213;46.452;16.994;2022-12-07T10:40:34;99966.56;;;3.70;98.92
75629;BME280;64213;46.452;16.994;2022-12-07T10:43:47;99967.50;;;3.92;98.14
75629;BME280;64213;46.452;16.994;2022-12-07T10:50:46;99965.34;;;3.80;98.02
75629;BME280;64213;46.452;16.994;2022-12-07T11:00:17;99968.72;;;3.35;99.73
75629;BME280;64213;46.452;16.994;2022-12-07T11:10:02;99964.38;;;3.34;100.00
75629;BME280;64213;46.452;16.994;2022-12-07T11:13:29;99966.75;;;3.42;100.00
75629;BME280;64213;46.452;16.994;2022-12-07T11:39:00;99951.84;;;3.91;98.17
75629;BME280;64213;46.452;16.994;2022-12-07T11:42:11;99953.28;;;3.98;97.43
75629;BME280;64213;46.452;16.994;2022-12-07T11:45:37;99938.13;;;3.84;97.43
75629;BME280;64213;46.452;16.994;2022-12-07T11:48:54;99948.97;;;3.97;97.50
75629;BME280;64213;46.452;16.994;2022-12-07T11:52:02;99945.81;;;4.11;97.50
75629;BME280;64213;46.452;16.994;2022-12-07T11:55:19;99946.75;;;4.10;97.45
75629;BME280;64213;46.452;16.994;2022-12-07T11:58:39;99945.59;;;4.17;97.44
75629;BME280;64213;46.452;16.994;2022-12-07T12:01:58;99942.91;;;3.73;99.03
75629;BME280;64213;46.452;16.994;2022-12-07T12:08:43;99934.38;;;3.91;99.03
75629;BME280;64213;46.452;16.994;2022-12-07T12:12:40;99943.44;;;4.05;98.66
75629;BME280;64213;46.452;16.994;2022-12-07T12:16:14;99939.59;;;3.91;99.21
75629;BME280;64213;46.452;16.994;2022-12-07T12:19:32;99946.41;;;3.95;98.84
75629;BME280;64213;46.452;16.994;2022-12-07T12:22:42;99935.47;;;4.08;98.38
75629;BME280;64213;46.452;16.994;2022-12-07T12:25:51;99940.59;;;4.11;98.40
75629;BME280;64213;46.452;16.994;2022-12-07T12:32:46;99937.97;;;4.11;98.50
75629;BME280;64213;46.452;16.994;2022-12-07T12:39:23;99938.66;;;4.16;98.52
75629;BME280;64213;46.452;16.994;2022-12-07T12:43:14;99932.69;;;4.12;99.06
75629;BME280;64213;46.452;16.994;2022-12-07T12:49:37;99930.72;;;4.17;99.22
75629;BME280;64213;46.452;16.994;2022-12-07T12:55:51;99928.31;;;4.13;99.90
75629;BME280;64213;46.452;16.994;2022-12-07T13:05:30;99925.13;;;4.27;99.09
75629;BME280;64213;46.452;16.994;2022-12-07T13:08:34;99918.13;;;4.27;98.83
75629;BME280;64213;46.452;16.994;2022-12-07T13:11:41;99922.22;;;4.34;98.51
75629;BME280;64213;46.452;16.994;2022-12-07T13:14:57;99921.34;;;4.34;98.33
75629;BME280;64213;46.452;16.994;2022-12-07T13:18:02;99918.91;;;4.29;98.22
75629;BME280;64213;46.452;16.994;2022-12-07T13:24:12;99915.25;;;4.33;97.60
75629;BME280;64213;46.452;16.994;2022-12-07T13:27:14;99914.41;;;4.33;97.47
75629;BME280;64213;46.452;16.994;2022-12-07T13:30:19;99917.34;;;4.25;97.19
75629;BME280;64213;46.452;16.994;2022-12-07T13:33:22;99916.50;;;4.25;97.36
75629;BME280;64213;46.452;16.994;2022-12-07T13:36:27;99918.44;;;4.41;96.72
75629;BME280;64213;46.452;16.994;2022-12-07T13:39:34;99913.59;;;4.53;96.54
75629;BME280;64213;46.452;16.994;2022-12-07T13:42:37;99904.50;;;4.61;95.88
75629;BME280;64213;46.452;16.994;2022-12-07T13:45:39;99910.16;;;4.73;95.44
75629;BME280;64213;46.452;16.994;2022-12-07T13:48:51;99905.44;;;4.81;95.49
75629;BME280;64213;46.452;16.994;2022-12-07T13:51:54;99906.28;;;4.81;94.94
75629;BME280;64213;46.452;16.994;2022-12-07T13:55:01;99912.56;;;4.77;94.94
75629;BME280;64213;46.452;16.994;2022-12-07T13:58:08;99917.44;;;4.66;95.00
75629;BME280;64213;46.452;16.994;2022-12-07T14:01:11;99928.41;;;4.54;95.12
75629;BME280;64213;46.452;16.994;2022-12-07T14:04:35;99924.25;;;4.48;96.01
75629;BME280;64213;46.452;16.994;2022-12-07T14:08:21;99925.53;;;4.60;95.72
75629;BME280;64213;46.452;16.994;2022-12-07T14:11:19;99928.94;;;4.62;95.55
75629;BME280;64213;46.452;16.994;2022-12-07T14:14:24;99930.19;;;4.53;95.86
75629;BME280;64213;46.452;16.994;2022-12-07T14:17:35;99927.59;;;4.52;96.10
75629;BME280;64213;46.452;16.994;2022-12-07T14:20:39;99928.72;;;4.46;96.30
75629;BME280;64213;46.452;16.994;2022-12-07T14:23:42;99926.94;;;4.47;96.53
75629;BME280;64213;46.452;16.994;2022-12-07T14:26:49;99929.44;;;4.50;96.55
75629;BME280;64213;46.452;16.994;2022-12-07T14:29:51;99922.63;;;4.46;96.77
75629;BME280;64213;46.452;16.994;2022-12-07T14:32:57;99928.31;;;4.35;96.81
75629;BME280;64213;46.452;16.994;2022-12-07T14:36:00;99938.16;;;4.28;97.08
75629;BME280;64213;46.452;16.994;2022-12-07T14:39:02;99938.16;;;4.28;97.45
75629;BME280;64213;46.452;16.994;2022-12-07T14:42:10;99929.00;;;4.18;97.38
75629;BME280;64213;46.452;16.994;2022-12-07T14:45:18;99937.94;;;4.12;97.48
75629;BME280;64213;46.452;16.994;2022-12-07T14:48:21;99937.19;;;4.09;97.66
75629;BME280;64213;46.452;16.994;2022-12-07T14:51:45;99938.28;;;4.03;97.71
75629;BME280;64213;46.452;16.994;2022-12-07T14:55:37;99944.59;;;3.97;98.04
75629;BME280;64213;46.452;16.994;2022-12-07T14:58:40;99948.37;;;3.90;98.50
75629;BME280;64213;46.452;16.994;2022-12-07T15:01:42;99949.56;;;3.82;98.56
75629;BME280;64213;46.452;16.994;2022-12-07T15:04:44;99942.13;;;3.71;98.98
75629;BME280;64213;46.452;16.994;2022-12-07T15:07:48;99946.84;;;3.61;99.50
75629;BME280;64213;46.452;16.994;2022-12-07T15:10:51;99949.00;;;3.50;99.88
75629;BME280;64213;46.452;16.994;2022-12-07T15:13:53;99949.41;;;3.39;100.00
75629;BME280;64213;46.452;16.994;2022-12-07T15:17:11;99952.38;;;3.29;100.00
75629;BME280;64213;46.452;16.994;2022-12-07T15:20:32;99946.63;;;3.19;100.00
75629;BME280;64213;46.452;16.994;2022-12-07T15:23:34;99951.28;;;3.11;100.00
75629;BME280;64213;46.452;16.994;2022-12-07T15:26:37;99956.88;;;3.00;100.00
75629;BME280;64213;46.452;16.994;2022-12-07T15:29:39;99952.66;;;2.96;100.00
75629;BME280;64213;46.452;16.994;2022-12-07T15:32:41;99952.84;;;2.90;100.00
75629;BME280;64213;46.452;16.994;2022-12-07T15:35:44;99956.50;;;2.86;100.00
75629;BME280;64213;46.452;16.994;2022-12-07T15:38:47;99955.84;;;2.79;100.00
75629;BME280;64213;46.452;16.994;2022-12-07T15:42:10;99956.03;;;2.73;100.00
75629;BME280;64213;46.452;16.994;2022-12-07T15:45:12;99960.47;;;2.71;100.00
75629;BME280;64213;46.452;16.994;2022-12-07T15:48:15;99972.75;;;2.67;100.00
75629;BME280;64213;46.452;16.994;2022-12-07T15:51:29;99971.00;;;2.68;100.00
75629;BME280;64213;46.452;16.994;2022-12-07T15:54:31;99974.69;;;2.62;100.00
75629;BME280;64213;46.452;16.994;2022-12-07T15:57:35;99978.19;;;2.61;100.00
75629;BME280;64213;46.452;16.994;2022-12-07T16:00:38;99980.22;;;2.53;100.00
75629;BME280;64213;46.452;16.994;2022-12-07T16:03:41;99982.16;;;2.46;100.00
75629;BME280;64213;46.452;16.994;2022-12-07T16:06:43;99985.91;;;2.38;100.00
75629;BME280;64213;46.452;16.994;2022-12-07T16:09:47;99984.44;;;2.29;100.00
75629;BME280;64213;46.452;16.994;2022-12-07T16:12:49;99980.97;;;2.28;100.00
75629;BME280;64213;46.452;16.994;2022-12-07T16:15:51;99981.03;;;2.27;100.00
75629;BME280;64213;46.452;16.994;2022-12-07T16:18:53;99983.59;;;2.28;100.00
75629;BME280;64213;46.452;16.994;2022-12-07T16:21:56;99981.91;;;2.26;100.00
75629;BME280;64213;46.452;16.994;2022-12-07T16:24:58;99990.38;;;2.34;100.00
75629;BME280;64213;46.452;16.994;2022-12-07T16:28:00;99986.56;;;2.44;100.00
75629;BME280;64213;46.452;16.994;2022-12-07T16:31:09;99989.72;;;2.55;100.00
75629;BME280;64213;46.452;16.994;2022-12-07T16:34:29;99984.22;;;2.63;100.00
75629;BME280;64213;46.452;16.994;2022-12-07T16:37:31;99989.28;;;2.68;100.00
75629;BME280;64213;46.452;16.994;2022-12-07T16:40:33;99997.19;;;2.66;100.00
75629;BME280;64213;46.452;16.994;2022-12-07T16:43:35;99990.19;;;2.67;100.00
75629;BME280;64213;46.452;16.994;2022-12-07T16:46:38;99987.69;;;2.64;100.00
75629;BME280;64213;46.452;16.994;2022-12-07T16:49:40;99984.06;;;2.68;100.00
75629;BME280;64213;46.452;16.994;2022-12-07T16:52:42;99987.88;;;2.58;100.00
75629;BME280;64213;46.452;16.994;2022-12-07T16:55:45;99986.94;;;2.60;100.00
75629;BME280;64213;46.452;16.994;2022-12-07T16:58:47;99986.09;;;2.60;100.00
75629;BME280;64213;46.452;16.994;2022-12-07T17:01:51;99984.56;;;2.52;100.00
75629;BME280;64213;46.452;16.994;2022-12-07T17:04:53;99988.88;;;2.53;100.00
75629;BME280;64213;46.452;16.994;2022-12-07T17:07:56;99991.59;;;2.50;100.00
75629;BME280;64213;46.452;16.994;2022-12-07T17:10:59;99989.16;;;2.46;100.00
75629;BME280;64213;46.452;16.994;2022-12-07T17:14:01;99990.00;;;2.46;100.00
75629;BME280;64213;46.452;16.994;2022-12-07T17:17:22;99994.50;;;2.41;100.00
75629;BME280;64213;46.452;16.994;2022-12-07T17:20:26;99992.69;;;2.43;100.00
75629;BME280;64213;46.452;16.994;2022-12-07T17:23:28;99999.81;;;2.38;100.00
75629;BME280;64213;46.452;16.994;2022-12-07T17:26:31;100002.41;;;2.38;100.00
75629;BME280;64213;46.452;16.994;2022-12-07T17:29:37;100005.22;;;2.32;100.00
75629;BME280;64213;46.452;16.994;2022-12-07T17:32:39;100006.97;;;2.31;100.00
75629;BME280;64213;46.452;16.994;2022-12-07T17:35:41;100000.91;;;2.31;100.00
75629;BME280;64213;46.452;16.994;2022-12-07T17:38:44;100004.22;;;2.36;100.00
75629;BME280;64213;46.452;16.994;2022-12-07T17:41:46;100000.00;;;2.32;100.00
75629;BME280;64213;46.452;16.994;2022-12-07T17:45:09;99999.44;;;2.22;100.00
75629;BME280;64213;46.452;16.994;2022-12-07T17:48:11;99991.75;;;2.18;100.00